Time;durP1;ratioP1;P1;durP2;ratioP2;P2;SDS_P1;SDS_P2;PMS_P1;PMS_P2;Temp;Humidity;BMP_temperature;BMP_pressure;BME280_temperature;BME280_humidity;BME280_pressure;Samples;Min_cycle;Max_cycle;Signal;HPM_P1;HPM_P2
2022/07/03 00:01:14;;;;;;;4.35;2.40;;;19.10;1.00;;;;;;7362414;19;20018;-61
2022/07/03 00:03:44;;;;;;;3.05;2.40;;;19.10;1.00;;;;;;7355513;19;20019;-62
2022/07/03 00:06:17;;;;;;;4.07;2.40;;;19.30;1.00;;;;;;7362588;19;20018;-62
2022/07/03 00:08:47;;;;;;;2.58;2.22;;;19.20;1.00;;;;;;7367676;19;20387;-62
2022/07/03 00:11:17;;;;;;;6.25;2.10;;;19.10;1.00;;;;;;7390084;19;20359;-62
2022/07/03 00:13:47;;;;;;;3.42;2.42;;;19.00;1.00;;;;;;7357978;19;20019;-62
2022/07/03 00:16:17;;;;;;;4.35;2.20;;;19.00;1.00;;;;;;7361658;19;20011;-62
2022/07/03 00:18:47;;;;;;;2.55;2.03;;;19.00;1.00;;;;;;7364176;19;20027;-62
2022/07/03 00:21:23;;;;;;;3.03;2.30;;;19.00;1.00;;;;;;7367982;19;20015;-62
2022/07/03 00:23:58;;;;;;;4.70;2.58;;;18.90;1.00;;;;;;7357653;19;20482;-62
2022/07/03 00:26:28;;;;;;;5.05;2.63;;;18.90;1.00;;;;;;7366020;19;20022;-63
2022/07/03 00:29:02;;;;;;;2.83;2.40;;;18.80;1.00;;;;;;7389797;19;20078;-62
2022/07/03 00:31:32;;;;;;;3.47;2.23;;;18.80;1.00;;;;;;7365007;19;20015;-63
2022/07/03 00:34:04;;;;;;;5.72;2.20;;;18.80;1.00;;;;;;7358730;19;20053;-63
2022/07/03 00:36:39;;;;;;;3.38;2.05;;;18.70;1.00;;;;;;7366166;19;20009;-61
2022/07/03 00:39:09;;;;;;;4.88;2.20;;;18.60;1.00;;;;;;7367409;19;20014;-61
2022/07/03 00:41:39;;;;;;;3.85;2.22;;;18.60;1.00;;;;;;7368610;19;20438;-63
2022/07/03 00:44:10;;;;;;;3.08;2.30;;;18.50;1.00;;;;;;7380561;19;20010;-63
2022/07/03 00:46:41;;;;;;;3.05;2.22;;;18.50;1.00;;;;;;7365304;19;20456;-63
2022/07/03 00:49:13;;;;;;;3.90;2.45;;;18.50;1.00;;;;;;7368236;19;20042;-63
2022/07/03 00:51:45;;;;;;;6.50;2.55;;;18.60;1.00;;;;;;7367494;19;20010;-62
2022/07/03 00:54:18;;;;;;;5.25;2.38;;;18.60;1.00;;;;;;7359229;19;20018;-61
2022/07/03 00:56:53;;;;;;;3.47;2.60;;;18.60;1.00;;;;;;7365220;19;20026;-63
2022/07/03 00:59:23;;;;;;;2.88;2.20;;;18.50;1.00;;;;;;7389695;19;20014;-63
2022/07/03 01:02:01;;;;;;;4.65;2.25;;;18.50;1.00;;;;;;7367348;19;20006;-63
2022/07/03 01:04:41;;;;;;;4.60;2.55;;;18.50;1.00;;;;;;7361771;19;20010;-63
2022/07/03 01:07:26;;;;;;;3.38;2.30;;;18.40;1.00;;;;;;7364539;19;20477;-63
2022/07/03 01:10:06;;;;;;;4.05;2.60;;;18.30;1.00;;;;;;7367230;19;20054;-63
2022/07/03 01:12:49;;;;;;;3.92;2.30;;;18.30;1.00;;;;;;7362746;19;20086;-63
2022/07/03 01:15:44;;;;;;;3.10;2.33;;;18.20;1.00;;;;;;7366259;19;20011;-63
2022/07/03 01:18:28;;;;;;;2.58;2.28;;;18.20;1.00;;;;;;7366132;19;20018;-63
2022/07/03 01:21:05;;;;;;;3.85;2.80;;;18.10;1.00;;;;;;7366877;19;20011;-63
2022/07/03 01:24:06;;;;;;;4.07;2.88;;;18.10;1.00;;;;;;7362486;19;20465;-63
2022/07/03 01:26:43;;;;;;;2.97;2.38;;;18.00;1.00;;;;;;7361790;19;20015;-62
2022/07/03 01:29:18;;;;;;;4.95;2.90;;;18.00;1.00;;;;;;7388796;19;20476;-62
2022/07/03 01:31:50;;;;;;;4.03;2.40;;;17.90;1.00;;;;;;7367009;19;20014;-62
2022/07/03 01:34:22;;;;;;;5.72;2.65;;;17.90;1.00;;;;;;7359526;19;20027;-62
2022/07/03 01:36:56;;;;;;;2.92;2.63;;;17.90;1.00;;;;;;7363801;19;20010;-63
2022/07/03 01:39:28;;;;;;;;;;;17.90;1.00;;;;;;7367405;19;20074;-61
2022/07/03 01:42:21;;;;;;;2.80;2.50;;;17.90;1.00;;;;;;7363926;19;19911;-62
2022/07/03 01:44:54;;;;;;;3.00;2.60;;;17.90;1.00;;;;;;7360998;19;20010;-62
2022/07/03 01:47:26;;;;;;;4.70;2.65;;;17.90;1.00;;;;;;7385242;19;20074;-62
2022/07/03 01:49:58;;;;;;;2.90;2.35;;;17.90;1.00;;;;;;7366379;19;20010;-62
2022/07/03 01:52:28;;;;;;;3.88;2.70;;;17.90;1.00;;;;;;7363094;19;20010;-62
2022/07/03 01:55:15;;;;;;;2.97;2.35;;;17.90;1.00;;;;;;7361614;19;20122;-62
2022/07/03 01:57:50;;;;;;;3.33;2.55;;;17.80;1.00;;;;;;7364271;19;20074;-62
2022/07/03 02:00:21;;;;;;;3.28;2.50;;;17.80;1.00;;;;;;7366160;19;20366;-62
2022/07/03 02:02:58;;;;;;;6.15;2.70;;;17.80;1.00;;;;;;7363219;19;20362;-62
2022/07/03 02:05:39;;;;;;;5.18;2.97;;;17.70;1.00;;;;;;7360501;19;20018;-62
2022/07/03 02:08:17;;;;;;;3.45;2.70;;;17.70;1.00;;;;;;7386157;19;20010;-61
2022/07/03 02:10:54;;;;;;;3.55;2.88;;;17.60;1.00;;;;;;7365795;19;20013;-62
2022/07/03 02:13:31;;;;;;;4.78;2.78;;;17.60;1.00;;;;;;7362244;19;20757;-62
2022/07/03 02:16:02;;;;;;;4.63;2.70;;;17.60;1.00;;;;;;7362743;19;20346;-62
2022/07/03 02:18:37;;;;;;;5.63;2.55;;;17.60;1.00;;;;;;7364193;19;20021;-62
2022/07/03 02:21:15;;;;;;;3.65;2.75;;;17.60;1.00;;;;;;7368800;19;20019;-62
2022/07/03 02:23:55;;;;;;;3.63;2.50;;;17.60;1.00;;;;;;7368035;19;20015;-61
2022/07/03 02:26:32;;;;;;;3.95;3.08;;;17.50;1.00;;;;;;7382123;19;20015;-63
2022/07/03 02:29:07;;;;;;;3.50;2.60;;;17.50;1.00;;;;;;7390493;19;20013;-62
2022/07/03 02:31:43;;;;;;;2.75;2.45;;;17.60;1.00;;;;;;7367974;19;20089;-62
2022/07/03 02:34:18;;;;;;;4.32;2.72;;;17.60;1.00;;;;;;7367687;19;20014;-62
2022/07/03 02:36:50;;;;;;;3.97;2.50;;;17.50;1.00;;;;;;7368611;19;20066;-63
2022/07/03 02:39:27;;;;;;;4.10;3.00;;;17.50;1.00;;;;;;7375335;19;20503;-63
2022/07/03 02:42:01;;;;;;;6.78;2.92;;;17.50;1.00;;;;;;7375752;19;20810;-62
2022/07/03 02:44:45;;;;;;;3.78;2.47;;;17.50;1.00;;;;;;7375435;19;20045;-63
2022/07/03 02:47:22;;;;;;;4.10;2.30;;;17.50;1.00;;;;;;7395187;19;20021;-62
2022/07/03 02:50:01;;;;;;;4.85;2.70;;;17.50;1.00;;;;;;7375299;19;20014;-62
2022/07/03 02:52:41;;;;;;;4.13;2.92;;;17.50;1.00;;;;;;7374032;19;20007;-62
2022/07/03 02:55:28;;;;;;;3.10;2.78;;;17.40;1.00;;;;;;7373968;19;20006;-62
2022/07/03 02:58:08;;;;;;;6.00;2.97;;;17.40;1.00;;;;;;7372851;19;20086;-62
2022/07/03 03:00:44;;;;;;;5.15;3.08;;;17.40;1.00;;;;;;7374599;19;20017;-62
2022/07/03 03:03:13;;;;;;;4.10;2.78;;;17.40;1.50;;;;;;7375430;19;20073;-62
2022/07/03 03:05:48;;;;;;;4.15;2.80;;;17.40;1.50;;;;;;7374515;19;20690;-62
2022/07/03 03:08:24;;;;;;;5.13;3.03;;;17.40;1.50;;;;;;7396874;19;20020;-62
2022/07/03 03:10:57;;;;;;;4.07;2.53;;;17.30;1.50;;;;;;7374886;19;20017;-62
2022/07/03 03:13:33;;;;;;;4.13;2.78;;;17.30;1.50;;;;;;7374113;19;20022;-62
2022/07/03 03:16:08;;;;;;;3.47;2.50;;;17.30;1.50;;;;;;7372791;19;20015;-62
2022/07/03 03:18:39;;;;;;;4.55;2.60;;;17.40;1.50;;;;;;7373068;19;20014;-62
2022/07/03 03:21:12;;;;;;;4.80;2.72;;;17.30;2.10;;;;;;7373488;19;20021;-62
2022/07/03 03:23:48;;;;;;;3.05;2.58;;;17.30;1.70;;;;;;7373941;19;20007;-62
2022/07/03 03:26:21;;;;;;;3.60;2.78;;;17.30;3.10;;;;;;7394320;19;20031;-62
2022/07/03 03:28:51;;;;;;;4.30;2.85;;;17.30;2.90;;;;;;7373806;19;20477;-62
2022/07/03 03:31:24;;;;;;;3.42;2.67;;;17.30;1.90;;;;;;7373318;19;20006;-62
2022/07/03 03:33:54;;;;;;;3.80;2.55;;;17.30;3.30;;;;;;7373120;19;20029;-62
2022/07/03 03:36:26;;;;;;;5.00;2.83;;;17.40;3.10;;;;;;7373281;19;20006;-63
2022/07/03 03:38:56;;;;;;;4.45;2.83;;;17.40;3.50;;;;;;7372354;19;20105;-63
2022/07/03 03:41:26;;;;;;;4.45;2.90;;;17.40;2.90;;;;;;7376339;19;20010;-62
2022/07/03 03:43:56;;;;;;;6.13;2.53;;;17.40;3.10;;;;;;7395480;19;20092;-62
2022/07/03 03:46:29;;;;;;;3.03;2.72;;;18.00;1.00;;;;;;7371255;19;20007;-62
2022/07/03 03:48:59;;;;;;;4.03;2.72;;;18.90;1.00;;;;;;7371332;19;20437;-62
2022/07/03 03:51:29;;;;;;;6.47;2.58;;;19.40;1.00;;;;;;7373448;19;20010;-62
2022/07/03 03:53:59;;;;;;;4.45;2.63;;;19.90;1.00;;;;;;7372547;19;20014;-62
2022/07/03 03:56:29;;;;;;;4.38;2.60;;;20.10;1.00;;;;;;7371606;19;20021;-63
2022/07/03 03:58:58;;;;;;;6.47;2.58;;;20.80;1.00;;;;;;7393477;19;20093;-63
2022/07/03 04:01:31;;;;;;;4.57;2.65;;;21.00;1.00;;;;;;7372639;19;20010;-62
2022/07/03 04:04:01;;;;;;;3.67;2.03;;;21.50;1.00;;;;;;7373378;19;20216;-62
2022/07/03 04:06:31;;;;;;;3.08;2.55;;;21.30;1.00;;;;;;7371077;19;20006;-62
2022/07/03 04:09:01;;;;;;;6.50;2.50;;;21.10;1.00;;;;;;7372614;19;20083;-64
2022/07/03 04:11:31;;;;;;;3.13;2.40;;;21.30;1.00;;;;;;7373004;19;20006;-63
2022/07/03 04:14:01;;;;;;;3.08;2.00;;;21.80;1.00;;;;;;7393482;19;20454;-63
2022/07/03 04:16:35;;;;;;;2.90;2.30;;;22.60;1.00;;;;;;7368797;19;20002;-62
2022/07/03 04:19:05;;;;;;;;;;;22.30;1.00;;;;;;7370925;19;20461;-63
2022/07/03 04:21:34;;;;;;;5.03;2.63;;;22.40;1.00;;;;;;7370487;19;20254;-63
2022/07/03 04:24:04;;;;;;;4.60;2.53;;;22.30;1.00;;;;;;7371328;19;20013;-63
2022/07/03 04:26:35;;;;;;;2.88;2.13;;;22.90;1.00;;;;;;7369547;19;20015;-62
2022/07/03 04:29:05;;;;;;;4.60;2.58;;;23.00;1.00;;;;;;7393705;19;20472;-62
2022/07/03 04:31:37;;;;;;;4.40;2.22;;;23.50;1.00;;;;;;7370358;19;20010;-62
2022/07/03 04:34:07;;;;;;;3.15;2.20;;;23.40;1.00;;;;;;7371125;19;20010;-63
2022/07/03 04:36:37;;;;;;;4.88;2.50;;;23.80;1.00;;;;;;7369831;19;20010;-63
2022/07/03 04:39:07;;;;;;;2.65;2.20;;;23.70;1.00;;;;;;7371158;19;20017;-63
2022/07/03 04:41:37;;;;;;;4.00;2.38;;;24.00;1.00;;;;;;7371382;19;20010;-62
2022/07/03 04:44:07;;;;;;;8.13;2.38;;;24.90;1.00;;;;;;7392911;19;20675;-62
2022/07/03 04:46:40;;;;;;;2.85;2.10;;;24.40;1.00;;;;;;7368472;19;20395;-62
2022/07/03 04:49:10;;;;;;;3.85;2.05;;;24.60;1.00;;;;;;7370840;19;20035;-62
2022/07/03 04:51:39;;;;;;;2.70;2.00;;;24.60;1.00;;;;;;7370022;19;20085;-62
2022/07/03 04:54:09;;;;;;;3.33;2.38;;;24.60;1.00;;;;;;7370530;19;20014;-62
2022/07/03 04:56:39;;;;;;;3.70;1.88;;;26.00;1.00;;;;;;7368595;19;20022;-63
2022/07/03 04:59:09;;;;;;;2.45;2.17;;;25.60;1.00;;;;;;7392069;19;20010;-63
2022/07/03 05:01:41;;;;;;;2.20;1.85;;;25.70;1.00;;;;;;7367467;19;20082;-63
2022/07/03 05:04:11;;;;;;;5.07;2.17;;;26.10;1.00;;;;;;7370138;19;20112;-63
2022/07/03 05:06:41;;;;;;;2.25;1.98;;;26.90;1.00;;;;;;7369383;19;20085;-62
2022/07/03 05:09:11;;;;;;;4.07;1.95;;;26.10;1.00;;;;;;7370767;19;20013;-62
2022/07/03 05:11:42;;;;;;;4.28;2.00;;;26.60;1.00;;;;;;7368037;19;20002;-62
2022/07/03 05:14:11;;;;;;;2.60;1.88;;;26.20;1.00;;;;;;7391810;19;20015;-62
2022/07/03 05:16:44;;;;;;;4.55;2.00;;;25.90;1.00;;;;;;7367619;19;20475;-62
2022/07/03 05:19:14;;;;;;;2.53;2.00;;;26.90;1.00;;;;;;7368611;19;20028;-63
2022/07/03 05:21:44;;;;;;;2.67;1.90;;;27.00;1.00;;;;;;7369533;19;20563;-63
2022/07/03 05:24:13;;;;;;;2.60;1.80;;;26.50;1.00;;;;;;7369992;19;20065;-62
2022/07/03 05:26:43;;;;;;;3.38;2.00;;;26.20;1.00;;;;;;7367562;19;20033;-62
2022/07/03 05:29:13;;;;;;;5.15;1.98;;;26.40;1.00;;;;;;7392125;19;20013;-62
2022/07/03 05:31:46;;;;;;;4.90;2.30;;;27.00;1.00;;;;;;7369601;19;20014;-62
2022/07/03 05:34:16;;;;;;;5.17;2.23;;;26.20;1.00;;;;;;7369045;19;20014;-62
2022/07/03 05:36:46;;;;;;;5.13;2.20;;;26.20;1.00;;;;;;7368338;19;20025;-62
2022/07/03 05:41:58;;;;;;;2.47;1.92;;;26.50;1.00;;;;;;7367480;19;20070;-63
2022/07/03 05:44:28;;;;;;;3.72;2.20;;;26.10;1.00;;;;;;7368683;19;20018;-63
2022/07/03 05:47:00;;;;;;;4.10;2.00;;;26.40;1.00;;;;;;7388602;19;20021;-63
2022/07/03 05:49:30;;;;;;;4.95;1.85;;;27.00;1.00;;;;;;7367691;19;20486;-63
2022/07/03 05:52:00;;;;;;;5.35;2.20;;;26.60;1.00;;;;;;7367141;19;20003;-62
2022/07/03 05:54:30;;;;;;;2.42;2.13;;;25.70;1.00;;;;;;7368121;19;20057;-63
2022/07/03 05:57:00;;;;;;;3.13;2.30;;;25.60;1.00;;;;;;7366635;19;20020;-63
2022/07/03 05:59:30;;;;;;;3.08;2.20;;;26.30;1.00;;;;;;7367529;19;20085;-63
2022/07/03 06:02:02;;;;;;;4.30;2.25;;;26.10;1.00;;;;;;7388212;19;20472;-63
2022/07/03 06:04:32;;;;;;;3.22;2.20;;;26.10;1.00;;;;;;7367100;19;20013;-62
2022/07/03 06:07:02;;;;;;;3.20;1.95;;;26.30;1.00;;;;;;7364992;19;20017;-63
2022/07/03 06:09:32;;;;;;;2.10;1.80;;;25.40;1.00;;;;;;7366891;19;20047;-62
2022/07/03 06:12:02;;;;;;;3.28;2.13;;;24.40;1.00;;;;;;7369144;19;20021;-62
2022/07/03 06:14:31;;;;;;;2.67;1.70;;;23.10;1.00;;;;;;7374725;19;20077;-63
2022/07/03 06:17:04;;;;;;;3.25;2.00;;;23.50;1.00;;;;;;7392994;19;20018;-62
2022/07/03 06:19:34;;;;;;;6.30;2.58;;;23.40;1.00;;;;;;7374014;19;20014;-62
2022/07/03 06:22:04;;;;;;;4.85;2.25;;;23.80;1.00;;;;;;7374840;19;20013;-63
2022/07/03 06:24:34;;;;;;;2.50;1.85;;;23.60;1.00;;;;;;7375865;19;20061;-63
2022/07/03 06:27:04;;;;;;;4.00;2.20;;;23.20;1.00;;;;;;7372802;19;20870;-62
2022/07/03 06:29:34;;;;;;;6.05;1.90;;;23.00;1.00;;;;;;7374483;19;20094;-63
2022/07/03 06:32:07;;;;;;;6.55;2.08;;;23.10;1.00;;;;;;7396798;19;20482;-63
2022/07/03 06:34:37;;;;;;;2.27;1.83;;;23.30;1.00;;;;;;7374126;19;20033;-63
2022/07/03 06:37:07;;;;;;;3.28;1.90;;;23.60;1.00;;;;;;7372242;19;20010;-63
2022/07/03 06:39:37;;;;;;;2.20;1.70;;;24.40;1.00;;;;;;7373068;19;20045;-62
2022/07/03 06:42:07;;;;;;;2.20;1.95;;;25.00;1.00;;;;;;7374671;19;20010;-63
2022/07/03 06:44:38;;;;;;;2.70;1.92;;;25.60;1.00;;;;;;7374489;19;20014;-62
2022/07/03 06:47:10;;;;;;;5.32;1.70;;;25.80;1.00;;;;;;7392452;19;20011;-63
2022/07/03 06:49:40;;;;;;;2.70;1.80;;;25.10;1.00;;;;;;7373913;19;20494;-63
2022/07/03 06:52:11;;;;;;;1.92;1.73;;;24.60;1.00;;;;;;7373688;19;20014;-62
2022/07/03 06:54:43;;;;;;;3.65;1.70;;;24.60;1.00;;;;;;7374017;19;20077;-62
2022/07/03 06:57:13;;;;;;;2.10;1.70;;;24.70;1.00;;;;;;7372427;19;20093;-63
2022/07/03 06:59:44;;;;;;;3.20;1.70;;;24.70;1.00;;;;;;7374325;19;20090;-62
2022/07/03 07:02:16;;;;;;;2.15;1.42;;;24.80;1.00;;;;;;7394879;19;20039;-63
2022/07/03 07:04:46;;;;;;;2.33;1.50;;;24.50;1.00;;;;;;7374353;19;20074;-61
2022/07/03 07:07:16;;;;;;;3.45;1.50;;;24.40;1.00;;;;;;7372585;19;20378;-61
2022/07/03 07:09:46;;;;;;;2.55;1.60;;;25.00;1.00;;;;;;7372770;19;20011;-61
2022/07/03 07:12:16;;;;;;;2.38;1.67;;;25.30;1.00;;;;;;7372284;19;20081;-61
2022/07/03 07:14:46;;;;;;;2.05;1.40;;;25.00;1.00;;;;;;7372052;19;20111;-61
2022/07/03 07:17:18;;;;;;;2.17;1.38;;;25.20;1.00;;;;;;7392247;19;20018;-61
2022/07/03 07:19:48;;;;;;;3.75;2.00;;;25.60;1.00;;;;;;7373234;19;20358;-61
2022/07/03 07:22:18;;;;;;;2.42;1.42;;;25.60;1.00;;;;;;7373475;19;20074;-61
2022/07/03 07:24:50;;;;;;;2.10;1.75;;;25.50;1.00;;;;;;7370851;19;20081;-61
2022/07/03 07:27:20;;;;;;;1.90;1.40;;;25.80;1.00;;;;;;7370271;19;20010;-61
2022/07/03 07:29:50;;;;;;;2.00;1.65;;;25.40;1.00;;;;;;7371469;19;20476;-61
2022/07/03 07:32:23;;;;;;;2.28;1.60;;;25.50;1.00;;;;;;7393648;19;20416;-62
2022/07/03 07:34:53;;;;;;;3.65;1.85;;;25.80;1.00;;;;;;7372955;19;20031;-61
2022/07/03 07:37:23;;;;;;;1.95;1.50;;;26.10;1.00;;;;;;7370289;19;20040;-61
2022/07/03 07:39:55;;;;;;;3.50;1.88;;;25.50;1.00;;;;;;7371735;19;20018;-62
2022/07/03 07:42:27;;;;;;;3.95;1.50;;;25.70;1.00;;;;;;7370910;19;20090;-61
2022/07/03 07:44:57;;;;;;;1.95;1.48;;;26.10;1.00;;;;;;7370905;19;20494;-62
2022/07/03 07:47:29;;;;;;;2.10;1.48;;;25.00;1.00;;;;;;7369231;19;20006;-62
2022/07/03 07:49:59;;;;;;;2.90;1.50;;;25.70;1.00;;;;;;7392920;19;20480;-62
2022/07/03 07:52:29;;;;;;;1.95;1.30;;;26.20;1.00;;;;;;7370251;19;20014;-62
2022/07/03 07:54:59;;;;;;;1.73;1.50;;;26.40;1.00;;;;;;7370786;19;20085;-61
2022/07/03 07:57:36;;;;;;;1.77;1.02;;;25.60;1.00;;;;;;7369397;19;20014;-62
2022/07/03 08:00:10;;;;;;;1.40;1.10;;;25.80;1.00;;;;;;7369310;19;20018;-61
2022/07/03 08:05:38;;;;;;;2.92;1.30;;;25.90;1.00;;;;;;7378221;19;20017;-61
2022/07/03 08:08:10;;;;;;;1.98;0.90;;;26.40;1.00;;;;;;7393371;19;20473;-61
2022/07/03 08:10:42;;;;;;;3.25;1.10;;;25.80;1.00;;;;;;7370579;19;20007;-62
2022/07/03 08:13:12;;;;;;;1.58;1.15;;;26.20;1.00;;;;;;7369969;19;20078;-61
2022/07/03 08:15:43;;;;;;;1.10;1.00;;;26.40;1.00;;;;;;7369651;19;20015;-62
2022/07/03 08:18:16;;;;;;;1.20;0.80;;;26.30;1.00;;;;;;7370375;19;20002;-61
2022/07/03 08:20:47;;;;;;;2.45;0.90;;;26.80;1.00;;;;;;7369727;19;20463;-61
2022/07/03 08:23:16;;;;;;;1.08;0.80;;;27.00;1.00;;;;;;7392223;19;20010;-61
2022/07/03 08:25:46;;;;;;;1.25;0.80;;;26.90;1.00;;;;;;7369167;19;20015;-61
2022/07/03 08:28:16;;;;;;;1.52;0.70;;;26.70;1.00;;;;;;7369020;19;20077;-61
2022/07/03 08:30:47;;;;;;;1.67;0.98;;;26.90;1.00;;;;;;7370964;19;20383;-61
2022/07/03 08:33:19;;;;;;;1.33;0.80;;;27.10;1.00;;;;;;7370366;19;20026;-61
2022/07/03 08:35:49;;;;;;;1.20;0.68;;;27.00;1.00;;;;;;7369768;19;20033;-61
2022/07/03 08:38:19;;;;;;;1.23;0.82;;;26.90;1.00;;;;;;7391558;19;20010;-61
2022/07/03 08:40:52;;;;;;;4.90;0.80;;;27.10;1.00;;;;;;7369453;19;20017;-61
2022/07/03 08:43:22;;;;;;;3.20;0.70;;;27.20;1.00;;;;;;7369096;19;20006;-62
2022/07/03 08:46:01;;;;;;;0.80;0.70;;;27.40;1.00;;;;;;7368921;19;20014;-62
2022/07/03 08:48:36;;;;;;;1.40;0.80;;;27.30;1.00;;;;;;7370050;19;20014;-61
2022/07/03 08:51:06;;;;;;;3.63;0.70;;;27.50;1.00;;;;;;7369304;19;20002;-61
2022/07/03 08:53:36;;;;;;;0.70;0.70;;;26.60;1.00;;;;;;7369369;19;20097;-61
2022/07/03 08:56:07;;;;;;;1.23;0.80;;;26.60;1.00;;;;;;7387311;19;20014;-61
2022/07/03 08:58:37;;;;;;;1.92;0.82;;;27.10;1.00;;;;;;7368241;19;20022;-62
2022/07/03 09:01:09;;;;;;;2.72;0.93;;;27.40;1.00;;;;;;7368237;19;20069;-61
2022/07/03 09:03:42;;;;;;;1.75;0.82;;;27.60;1.00;;;;;;7368745;19;20634;-61
2022/07/03 09:06:13;;;;;;;1.67;0.55;;;27.20;1.00;;;;;;7368607;19;20034;-61
2022/07/03 09:08:43;;;;;;;0.93;0.60;;;27.50;1.00;;;;;;7369351;19;20078;-61
2022/07/03 09:11:13;;;;;;;0.73;0.60;;;27.90;1.00;;;;;;7389925;19;20078;-61
2022/07/03 09:13:43;;;;;;;1.08;0.82;;;27.20;1.00;;;;;;7366190;19;20051;-61
2022/07/03 09:16:19;;;;;;;1.25;0.70;;;27.40;1.00;;;;;;7366554;19;20020;-61
2022/07/03 09:18:52;;;;;;;1.95;0.65;;;27.00;1.00;;;;;;7366455;19;20375;-61
2022/07/03 09:21:24;;;;;;;0.73;0.60;;;27.40;1.00;;;;;;7366841;19;20011;-61
2022/07/03 09:23:54;;;;;;;0.50;0.50;;;28.00;1.00;;;;;;7368543;19;20027;-61
2022/07/03 09:26:27;;;;;;;0.70;0.60;;;28.30;1.00;;;;;;7388573;19;20086;-61
2022/07/03 09:28:57;;;;;;;0.70;0.60;;;28.40;1.00;;;;;;7368518;19;20006;-62
2022/07/03 09:31:29;;;;;;;1.40;0.80;;;28.20;1.00;;;;;;7367875;19;20011;-63
2022/07/03 09:34:04;;;;;;;1.20;0.70;;;28.20;1.00;;;;;;7363727;19;20018;-63
2022/07/03 09:36:45;;;;;;;2.15;0.68;;;28.10;1.00;;;;;;7367769;19;20027;-62
2022/07/03 09:39:26;;;;;;;0.85;0.65;;;28.40;1.00;;;;;;7368490;19;20006;-62
2022/07/03 09:42:00;;;;;;;0.80;0.73;;;28.40;1.00;;;;;;7367102;19;20023;-60
2022/07/03 09:44:40;;;;;;;1.85;0.88;;;28.00;1.00;;;;;;7368201;19;20155;-62
2022/07/03 09:47:17;;;;;;;0.90;0.70;;;28.00;1.00;;;;;;7385450;19;20018;-61
2022/07/03 09:49:53;;;;;;;1.20;0.90;;;28.30;1.00;;;;;;7366537;19;20477;-62
2022/07/03 09:52:45;;;;;;;1.25;0.85;;;28.30;1.00;;;;;;7366167;19;20014;-62
2022/07/03 09:55:18;;;;;;;1.50;0.70;;;28.60;1.00;;;;;;7363821;19;20027;-63
2022/07/03 09:58:01;;;;;;;1.83;1.15;;;27.60;1.00;;;;;;7366301;19;20086;-62
2022/07/03 10:00:33;;;;;;;1.70;0.90;;;26.90;1.00;;;;;;7366758;19;20007;-61
2022/07/03 10:03:05;;;;;;;0.90;0.77;;;27.90;1.00;;;;;;7364532;19;20018;-62
2022/07/03 10:05:40;;;;;;;0.93;0.80;;;28.20;1.00;;;;;;7364640;19;20014;-62
2022/07/03 10:08:15;;;;;;;0.80;0.80;;;28.40;1.00;;;;;;7385688;19;20018;-62
2022/07/03 10:10:46;;;;;;;0.88;0.68;;;28.50;1.00;;;;;;7364147;19;20023;-62
2022/07/03 10:13:17;;;;;;;1.35;0.88;;;28.60;1.00;;;;;;7363627;19;20003;-61
2022/07/03 10:15:47;;;;;;;2.78;0.80;;;28.70;1.00;;;;;;7363923;19;20007;-61
2022/07/03 10:18:19;;;;;;;2.40;1.00;;;28.70;1.00;;;;;;7363392;19;20015;-60
2022/07/03 10:20:53;;;;;;;1.63;0.75;;;28.60;1.00;;;;;;7364562;19;20017;-62
2022/07/03 10:23:24;;;;;;;2.50;0.63;;;28.40;1.00;;;;;;7385724;19;20013;-60
2022/07/03 10:25:56;;;;;;;1.38;0.63;;;27.80;1.00;;;;;;7364994;19;20015;-62
2022/07/03 10:28:29;;;;;;;0.93;0.70;;;28.10;1.00;;;;;;7366018;19;20010;-61
2022/07/03 10:30:59;;;;;;;1.40;0.85;;;28.10;1.00;;;;;;7364463;19;20078;-61
2022/07/03 10:33:31;;;;;;;1.20;0.75;;;28.20;1.00;;;;;;7365218;19;20071;-62
2022/07/03 10:36:08;;;;;;;1.70;0.90;;;28.40;1.00;;;;;;7364351;19;20038;-61
2022/07/03 10:38:40;;;;;;;3.30;0.80;;;28.70;1.00;;;;;;7365307;19;20021;-62
2022/07/03 10:46:46;;;;;;;2.45;0.80;;;28.80;1.00;;;;;;7362376;19;20014;-62
2022/07/03 10:49:16;;;;;;;2.00;0.90;;;28.40;1.00;;;;;;7362618;19;20021;-61
2022/07/03 10:52:00;;;;;;;1.75;1.13;;;27.60;1.00;;;;;;7364426;19;20121;-62
2022/07/03 10:54:33;;;;;;;3.15;0.90;;;28.40;1.00;;;;;;7365483;19;20326;-62
2022/07/03 10:57:19;;;;;;;2.10;0.63;;;28.30;1.00;;;;;;7363702;19;20017;-62
2022/07/03 11:00:07;;;;;;;2.65;0.70;;;28.00;1.00;;;;;;7367621;19;20470;-63
2022/07/03 11:02:49;;;;;;;0.98;0.80;;;27.90;1.00;;;;;;7371715;19;20025;-62
2022/07/03 11:05:28;;;;;;;1.35;0.70;;;28.20;1.00;;;;;;7393032;19;20007;-61
2022/07/03 11:08:16;;;;;;;0.80;0.57;;;28.00;1.00;;;;;;7372830;19;20010;-63
2022/07/03 11:11:54;;;;;;;1.00;0.60;;;28.50;1.00;;;;;;7371654;19;20018;-62
2022/07/03 11:13:59;;;;;;;0.88;0.63;;;28.50;1.00;;;;;;7369645;19;20027;-62
2022/07/03 11:16:29;;;;;;;1.30;0.98;;;28.60;1.00;;;;;;7369255;19;20025;-62
2022/07/03 11:19:05;;;;;;;1.02;0.70;;;28.60;1.00;;;;;;7370418;19;20486;-63
2022/07/03 11:21:39;;;;;;;1.95;0.70;;;28.20;1.00;;;;;;7372407;19;20014;-62
2022/07/03 11:24:38;;;;;;;1.25;0.88;;;28.50;1.00;;;;;;7371946;19;20446;-63
2022/07/03 11:27:16;;;;;;;0.70;0.60;;;28.50;1.00;;;;;;7370432;19;20502;-62
2022/07/03 11:29:57;;;;;;;0.90;0.63;;;28.60;1.00;;;;;;7372545;19;20486;-62
2022/07/03 11:32:49;;;;;;;3.47;1.00;;;28.40;1.00;;;;;;7369597;19;20015;-63
2022/07/03 11:36:02;;;;;;;3.85;1.20;;;28.10;1.00;;;;;;7393317;19;20014;-62
2022/07/03 11:38:32;;;;;;;1.05;0.80;;;28.60;1.00;;;;;;7269129;19;2004365;-61
2022/07/03 11:41:10;;;;;;;1.13;0.60;;;29.00;1.00;;;;;;7392768;19;20098;-61
2022/07/03 11:43:40;;;;;;;1.80;0.70;;;28.90;1.00;;;;;;7368713;19;20373;-63
2022/07/03 11:46:11;;;;;;;0.88;0.55;;;28.80;1.00;;;;;;7367239;19;20482;-61
2022/07/03 11:48:41;;;;;;;4.78;0.90;;;28.70;1.00;;;;;;7370124;19;20503;-62
2022/07/03 11:51:10;;;;;;;1.45;0.70;;;29.10;1.00;;;;;;7371393;19;20090;-61
2022/07/03 11:53:42;;;;;;;1.55;1.15;;;29.40;1.00;;;;;;7362743;19;20019;-62
2022/07/03 11:56:15;;;;;;;1.42;0.75;;;29.70;1.00;;;;;;7382621;19;20474;-62
2022/07/03 11:58:48;;;;;;;0.85;0.80;;;28.90;1.00;;;;;;7368798;19;20009;-63
2022/07/03 12:01:34;;;;;;;1.42;0.80;;;28.90;1.00;;;;;;7367450;19;20014;-62
2022/07/03 12:04:12;;;;;;;1.30;0.80;;;28.90;1.00;;;;;;7362489;19;20105;-61
2022/07/03 12:06:45;;;;;;;1.08;0.60;;;29.00;1.00;;;;;;7366216;19;20018;-61
2022/07/03 12:09:17;;;;;;;1.40;0.70;;;28.90;1.00;;;;;;7366981;19;20377;-61
2022/07/03 12:12:01;;;;;;;2.47;0.80;;;28.90;1.00;;;;;;7368000;19;20018;-61
2022/07/03 12:14:38;;;;;;;2.53;0.82;;;29.00;1.00;;;;;;7362291;19;20041;-62
2022/07/03 12:17:11;;;;;;;2.65;0.70;;;29.20;1.00;;;;;;7386158;19;20011;-61
2022/07/03 12:19:53;;;;;;;3.08;1.00;;;29.30;1.00;;;;;;7366733;19;20014;-61
2022/07/03 12:22:32;;;;;;;2.60;0.80;;;29.10;1.00;;;;;;7364690;19;20021;-61
2022/07/03 12:25:05;;;;;;;1.52;1.00;;;29.20;1.00;;;;;;7362134;19;20090;-62
2022/07/03 12:27:40;;;;;;;1.67;0.80;;;29.50;1.00;;;;;;7365421;19;20379;-62
2022/07/03 12:30:12;;;;;;;1.67;1.00;;;29.70;1.00;;;;;;7367329;19;20010;-62
2022/07/03 12:32:42;;;;;;;4.22;0.82;;;29.10;1.00;;;;;;7365826;19;20415;-61
2022/07/03 12:35:12;;;;;;;0.80;0.68;;;29.20;1.00;;;;;;7381348;19;20043;-61
2022/07/03 12:37:44;;;;;;;4.97;0.90;;;29.30;1.00;;;;;;7365172;19;20089;-62
2022/07/03 12:40:17;;;;;;;2.03;0.70;;;29.40;1.00;;;;;;7366368;19;20006;-62
2022/07/03 12:42:52;;;;;;;0.90;0.60;;;29.70;1.00;;;;;;7365617;19;20006;-62
2022/07/03 12:45:23;;;;;;;14.60;1.25;;;29.40;1.00;;;;;;7359312;19;20250;-62
2022/07/03 12:48:03;;;;;;;1.15;0.80;;;29.10;1.00;;;;;;7365812;19;20019;-62
2022/07/03 12:50:51;;;;;;;0.95;0.75;;;28.60;1.00;;;;;;7367536;19;20018;-62
2022/07/03 12:53:31;;;;;;;1.35;0.80;;;29.30;1.00;;;;;;7389595;19;20014;-62
2022/07/03 12:56:03;;;;;;;1.02;0.70;;;29.70;1.00;;;;;;7359871;19;20006;-62
2022/07/03 13:01:29;;;;;;;1.00;0.73;;;29.20;1.00;;;;;;7365419;19;20030;-62
2022/07/03 13:04:00;;;;;;;1.73;0.90;;;29.10;1.00;;;;;;7360983;19;20447;-62
2022/07/03 13:06:30;;;;;;;1.27;0.80;;;29.10;1.00;;;;;;7365475;19;20011;-62
2022/07/03 13:09:01;;;;;;;1.65;0.90;;;29.00;1.00;;;;;;7364963;19;20009;-62
2022/07/03 13:11:33;;;;;;;1.10;0.80;;;29.10;1.00;;;;;;7366478;19;20033;-63
2022/07/03 13:14:14;;;;;;;2.10;0.80;;;29.30;1.00;;;;;;7381968;19;20015;-64
2022/07/03 13:16:46;;;;;;;2.42;0.80;;;29.50;1.00;;;;;;7362280;19;20006;-62
2022/07/03 13:19:18;;;;;;;1.20;0.82;;;29.20;1.00;;;;;;7365496;19;20014;-63
2022/07/03 13:21:48;;;;;;;0.88;0.70;;;29.80;1.00;;;;;;7364019;19;20086;-63
2022/07/03 13:24:20;;;;;;;1.15;0.90;;;29.50;1.00;;;;;;7357786;19;20043;-63
2022/07/03 13:26:51;;;;;;;2.33;0.90;;;29.20;1.00;;;;;;7364689;19;20013;-64
2022/07/03 13:29:26;;;;;;;0.75;0.73;;;29.50;1.00;;;;;;7387273;19;20018;-63
2022/07/03 13:31:56;;;;;;;1.27;1.00;;;29.50;1.00;;;;;;7365607;19;20086;-63
2022/07/03 13:34:26;;;;;;;1.00;0.80;;;29.60;1.00;;;;;;7359303;19;20010;-63
2022/07/03 13:36:56;;;;;;;3.20;0.80;;;29.70;1.00;;;;;;7364643;19;20017;-63
2022/07/03 13:39:26;;;;;;;3.13;0.82;;;29.50;1.00;;;;;;7364308;19;20017;-63
2022/07/03 13:41:56;;;;;;;5.25;1.00;;;29.00;1.00;;;;;;7366886;19;20014;-63
2022/07/03 13:44:28;;;;;;;1.83;0.70;;;29.30;1.00;;;;;;7368781;19;20010;-63